Current Weather

Portland Intl

Portland, Oregon (KPDX)

Report from: Sunday, January 29, 2023 6:53 AM PST
Current time: Sunday, January 29, 2023 7:33 AM PST

Nearby weather
Weather history
Weather forecast

Temperature0.6°C (33.1°F)
Wind chill-4.2°C (24.4°F)
Dew point-12.2°C (10.0°F)
Winds 10 kts (5.1 m/s, 11.5 mph) East (90°)
Wind gusts 18 kts (9.3 m/s, 20.7 mph)
Visibility10 mi. (16.1 km)
Clouds Sky clear
Altimeter30.40 in.Hg (1029 mB)
Relative humidity38 %
Density altitude-2,264 ft. (-690 m)
Sea-level pressure102.9 kPa (1029 mB, 30.40 in.Hg)
Remarks Automated weather observing station with precipitation discriminator
Pressure rising more slowly
Flight conditions Visual Meteorological Conditions
Raw dataKPDX 291453Z 09010G18KT 10SM CLR 01/M12 A3040 RMK AO2 SLP294 T00061122 51026
An error has occurred. This application may no longer respond until reloaded. Reload 🗙